Time;durP1;ratioP1;P1;durP2;ratioP2;P2;SDS_P1;SDS_P2;PMS_P1;PMS_P2;Temp;Humidity;BMP_temperature;BMP_pressure;BME280_temperature;BME280_humidity;BME280_pressure;Samples;Min_cycle;Max_cycle;Signal;HPM_P1;HPM_P2
2021/07/04 00:00:19;;;;;;;7.17;6.20;;;17.80;1.00;;;;;;4954073;29;21008;-84
2021/07/04 00:02:47;;;;;;;6.10;5.50;;;17.90;99.90;;;;;;4937158;29;20411;-85
2021/07/04 00:05:18;;;;;;;7.90;7.10;;;18.00;99.90;;;;;;4954446;29;20468;-85
2021/07/04 00:07:46;;;;;;;6.20;5.50;;;18.00;99.90;;;;;;4959323;29;20392;-85
2021/07/04 00:10:16;;;;;;;6.73;6.13;;;18.00;99.90;;;;;;4959730;29;20375;-85
2021/07/04 00:12:45;;;;;;;7.97;7.27;;;17.90;99.90;;;;;;4942964;29;20411;-84
2021/07/04 00:15:18;;;;;;;6.73;6.13;;;18.10;99.90;;;;;;4958804;29;20441;-85
2021/07/04 00:17:46;;;;;;;6.37;5.77;;;18.20;99.90;;;;;;4958642;29;20452;-87
2021/07/04 00:20:17;;;;;;;6.40;5.90;;;18.20;99.90;;;;;;4958227;29;20453;-85
2021/07/04 00:22:46;;;;;;;8.90;8.00;;;18.10;99.90;;;;;;4956617;29;20400;-85
2021/07/04 00:25:16;;;;;;;7.13;6.13;;;18.00;99.90;;;;;;4944693;29;20440;-86
2021/07/04 00:27:46;;;;;;;7.77;7.07;;;18.00;99.90;;;;;;4945193;29;20387;-87
2021/07/04 00:30:17;;;;;;;7.57;6.83;;;18.00;99.90;;;;;;4946591;29;20448;-86
2021/07/04 00:32:45;;;;;;;7.07;6.00;;;18.10;99.90;;;;;;4945356;29;20409;-85
2021/07/04 00:35:16;;;;;;;8.20;7.27;;;18.10;99.90;;;;;;4946458;29;20552;-84
2021/07/04 00:37:44;;;;;;;12.53;7.73;;;18.10;99.90;;;;;;4944027;29;20443;-85
2021/07/04 00:40:14;;;;;;;6.47;5.87;;;18.00;99.90;;;;;;4931298;29;20444;-85
2021/07/04 00:42:43;;;;;;;7.00;6.30;;;17.90;99.90;;;;;;4943649;29;20492;-84
2021/07/04 00:45:17;;;;;;;5.70;5.10;;;17.90;1.00;;;;;;4942474;29;20451;-85
2021/07/04 00:47:48;;;;;;;6.67;6.07;;;17.90;1.00;;;;;;4941057;29;20418;-86
2021/07/04 00:50:22;;;;;;;8.03;5.80;;;17.90;1.00;;;;;;4923521;29;20436;-85
2021/07/04 00:52:53;;;;;;;6.50;5.90;;;17.90;1.00;;;;;;4945620;29;20399;-86
2021/07/04 00:55:24;;;;;;;7.47;6.10;;;18.00;1.00;;;;;;4950251;29;20480;-86
2021/07/04 00:57:59;;;;;;;8.17;6.27;;;17.90;99.90;;;;;;4934807;29;20439;-86
2021/07/04 01:00:33;;;;;;;7.30;6.63;;;18.00;1.00;;;;;;4955308;29;20448;-83
2021/07/04 01:03:02;;;;;;;7.13;6.40;;;18.20;99.90;;;;;;4959607;29;20449;-85
2021/07/04 01:05:34;;;;;;;8.37;7.00;;;18.10;1.00;;;;;;4960112;28;20426;-83
2021/07/04 01:08:05;;;;;;;7.50;6.80;;;18.10;99.90;;;;;;4959588;28;20403;-83
2021/07/04 01:10:38;;;;;;;7.80;7.00;;;18.10;99.90;;;;;;4942343;29;20418;-83
2021/07/04 01:13:13;;;;;;;7.37;6.30;;;18.10;99.90;;;;;;4938484;29;20460;-84
2021/07/04 01:15:50;;;;;;;9.83;8.70;;;18.10;99.90;;;;;;4953128;29;20410;-84
2021/07/04 01:18:19;;;;;;;9.70;8.70;;;18.20;99.90;;;;;;4948586;29;20558;-84
2021/07/04 01:20:58;;;;;;;7.83;7.10;;;18.10;99.90;;;;;;4933526;29;20455;-84
2021/07/04 01:23:28;;;;;;;7.60;6.90;;;18.10;99.90;;;;;;4952223;29;20463;-85
2021/07/04 01:25:57;;;;;;;8.50;7.60;;;18.10;99.90;;;;;;4934438;29;20459;-85
2021/07/04 01:28:31;;;;;;;6.97;6.37;;;18.10;99.90;;;;;;4934790;29;20444;-83
2021/07/04 01:31:05;;;;;;;6.80;6.23;;;18.10;99.90;;;;;;4957770;29;20455;-84
2021/07/04 01:33:36;;;;;;;12.93;7.80;;;18.00;99.90;;;;;;4938851;29;20447;-84
2021/07/04 01:36:12;;;;;;;7.87;7.17;;;18.00;99.90;;;;;;4948913;29;20452;-84
2021/07/04 01:38:45;;;;;;;8.40;6.87;;;18.00;99.90;;;;;;4947723;29;20525;-83
2021/07/04 01:41:13;;;;;;;7.13;6.43;;;17.80;99.90;;;;;;4945170;29;20433;-83
2021/07/04 01:43:42;;;;;;;10.50;7.40;;;17.90;99.90;;;;;;4928296;29;20460;-82
2021/07/04 01:46:11;;;;;;;9.10;6.57;;;17.90;99.90;;;;;;4940365;29;20476;-84
2021/07/04 01:48:42;;;;;;;6.77;6.13;;;18.00;99.90;;;;;;4956450;29;20459;-84
2021/07/04 01:51:17;;;;;;;7.17;6.23;;;18.00;99.90;;;;;;4957640;29;20395;-83
2021/07/04 01:53:48;;;;;;;7.83;6.77;;;17.90;99.90;;;;;;4950014;29;20816;-85
2021/07/04 01:56:20;;;;;;;10.13;7.03;;;17.80;99.90;;;;;;4928321;29;20441;-84
2021/07/04 01:58:53;;;;;;;9.27;7.80;;;17.70;99.90;;;;;;4940596;29;20508;-84
2021/07/04 02:01:50;;;;;;;7.40;6.70;;;17.70;99.90;;;;;;4930861;29;20496;-86
2021/07/04 02:04:20;;;;;;;9.43;8.13;;;17.70;99.90;;;;;;4953590;29;20472;-84
2021/07/04 02:07:01;;;;;;;8.50;7.47;;;17.70;99.90;;;;;;4956270;29;20414;-84
2021/07/04 02:09:30;;;;;;;7.27;6.47;;;17.60;99.90;;;;;;4950570;29;20502;-85
2021/07/04 02:11:59;;;;;;;14.60;9.83;;;17.50;99.90;;;;;;4951342;29;20957;-85
2021/07/04 02:14:33;;;;;;;11.10;9.83;;;17.40;99.90;;;;;;4936925;29;20549;-85
2021/07/04 02:17:15;;;;;;;17.43;9.40;;;17.50;99.90;;;;;;4936932;29;20443;-85
2021/07/04 02:20:34;;;;;;;8.97;8.07;;;17.50;99.90;;;;;;4953511;29;20378;-84
2021/07/04 02:23:29;;;;;;;7.73;7.03;;;17.40;99.90;;;;;;4951017;29;20545;-85
2021/07/04 02:26:21;;;;;;;8.70;7.73;;;17.40;1.00;;;;;;4946016;29;20452;-85
2021/07/04 02:28:52;;;;;;;7.53;6.73;;;17.40;99.90;;;;;;4937990;29;20472;-84
2021/07/04 02:31:30;;;;;;;16.30;8.10;;;17.40;99.90;;;;;;4952721;29;20440;-86
2021/07/04 02:33:59;;;;;;;8.97;7.97;;;17.40;99.90;;;;;;4955261;29;20466;-84
2021/07/04 02:36:33;;;;;;;8.77;7.87;;;17.50;85.30;;;;;;4939036;29;20444;-86
2021/07/04 02:39:13;;;;;;;9.33;8.37;;;17.60;99.90;;;;;;4954079;29;20456;-84
2021/07/04 02:41:44;;;;;;;9.80;7.47;;;17.60;99.90;;;;;;4937512;29;20411;-85
2021/07/04 02:44:15;;;;;;;7.43;6.73;;;17.60;99.90;;;;;;4937230;29;20456;-84
2021/07/04 02:46:45;;;;;;;8.00;7.20;;;17.70;99.90;;;;;;4954594;29;20407;-86
2021/07/04 02:49:14;;;;;;;7.57;6.87;;;17.70;99.90;;;;;;4954691;29;20413;-85
2021/07/04 02:51:46;;;;;;;9.17;8.20;;;17.90;99.90;;;;;;4957155;29;20419;-83
2021/07/04 02:54:15;;;;;;;7.83;6.90;;;18.00;99.90;;;;;;4941300;29;20439;-84
2021/07/04 02:57:06;;;;;;;8.80;7.87;;;18.00;99.90;;;;;;4940161;29;20885;-84
2021/07/04 02:59:38;;;;;;;8.60;7.37;;;18.00;99.90;;;;;;4956013;28;20449;-82
2021/07/04 03:02:08;;;;;;;7.80;7.00;;;18.10;99.90;;;;;;4962397;28;20396;-82
2021/07/04 03:04:37;;;;;;;7.33;6.73;;;18.20;99.90;;;;;;4962210;28;20410;-82
2021/07/04 03:07:07;;;;;;;11.10;7.43;;;18.20;99.90;;;;;;4946320;28;20496;-82
2021/07/04 03:09:39;;;;;;;9.33;8.30;;;18.30;99.90;;;;;;4945124;29;20447;-84
2021/07/04 03:12:10;;;;;;;8.00;7.30;;;18.30;99.90;;;;;;4958468;29;20407;-84
2021/07/04 03:14:38;;;;;;;9.03;8.23;;;18.30;99.90;;;;;;4957029;29;20448;-84
2021/07/04 03:17:07;;;;;;;9.33;8.23;;;18.20;99.90;;;;;;4941029;29;20411;-84
2021/07/04 03:19:35;;;;;;;8.97;7.37;;;18.20;99.90;;;;;;4940572;29;20488;-84
2021/07/04 03:22:06;;;;;;;9.43;8.17;;;18.20;99.90;;;;;;4957324;29;20455;-85
2021/07/04 03:24:39;;;;;;;8.73;7.87;;;18.20;99.90;;;;;;4955902;29;20439;-85
2021/07/04 03:27:11;;;;;;;8.30;7.40;;;18.30;99.90;;;;;;4956833;29;20459;-84
2021/07/04 03:29:44;;;;;;;8.97;8.07;;;18.40;99.90;;;;;;4954838;29;20407;-85
2021/07/04 03:32:13;;;;;;;8.50;7.60;;;18.40;99.90;;;;;;4939992;29;20415;-86
2021/07/04 03:34:44;;;;;;;10.00;6.77;;;18.40;99.90;;;;;;4995926;23;20485;-68
2021/07/04 03:37:13;;;;;;;7.43;6.73;;;18.50;99.90;;;;;;4975417;28;20980;-68
2021/07/04 03:39:42;;;;;;;8.07;7.30;;;18.50;99.90;;;;;;4991121;28;20483;-68
2021/07/04 03:42:15;;;;;;;10.90;7.40;;;18.40;99.90;;;;;;4975116;28;20432;-68
2021/07/04 03:44:43;;;;;;;9.53;8.60;;;18.50;99.90;;;;;;4975072;28;20500;-68
2021/07/04 03:47:14;;;;;;;8.77;7.93;;;18.30;99.90;;;;;;4992958;28;20422;-69
2021/07/04 03:49:42;;;;;;;9.43;8.43;;;18.20;99.90;;;;;;4992017;28;20521;-68
2021/07/04 03:52:14;;;;;;;7.63;6.90;;;18.20;99.90;;;;;;4992570;28;20836;-69
2021/07/04 03:54:42;;;;;;;9.27;8.37;;;18.20;99.90;;;;;;4992459;28;20388;-68
2021/07/04 03:57:23;;;;;;;9.90;6.93;;;18.40;99.90;;;;;;4974874;28;20510;-68
2021/07/04 04:00:10;;;;;;;9.43;7.97;;;18.60;99.90;;;;;;4974748;28;20472;-68
2021/07/04 04:02:44;;;;;;;9.17;8.00;;;18.90;99.90;;;;;;4992835;28;20392;-69
2021/07/04 04:05:20;;;;;;;8.53;7.70;;;19.00;99.90;;;;;;4991929;28;20444;-68
2021/07/04 04:07:54;;;;;;;8.93;7.47;;;19.10;99.90;;;;;;4974699;28;20454;-68
2021/07/04 04:10:23;;;;;;;8.00;7.30;;;19.20;99.90;;;;;;4974624;28;20409;-69
2021/07/04 04:12:56;;;;;;;11.40;7.93;;;19.30;99.90;;;;;;4991127;28;20761;-68
2021/07/04 04:15:25;;;;;;;18.00;7.83;;;19.30;99.90;;;;;;4974436;28;20466;-68
2021/07/04 04:17:56;;;;;;;9.30;8.50;;;19.50;99.90;;;;;;4992017;28;20452;-68
2021/07/04 04:20:25;;;;;;;8.83;7.87;;;19.60;99.90;;;;;;4990260;28;20401;-68
2021/07/04 04:22:54;;;;;;;7.33;6.63;;;19.80;99.90;;;;;;4992066;28;20418;-68
2021/07/04 04:25:23;;;;;;;7.67;6.90;;;19.60;99.90;;;;;;4974550;28;20448;-68
2021/07/04 04:27:54;;;;;;;8.67;7.83;;;19.50;99.90;;;;;;4992104;28;20491;-68
2021/07/04 04:30:24;;;;;;;9.10;8.20;;;19.40;99.90;;;;;;4991798;28;20902;-68
2021/07/04 04:32:52;;;;;;;8.20;7.43;;;19.30;99.90;;;;;;4991971;28;20509;-68
2021/07/04 04:35:21;;;;;;;8.43;7.63;;;19.30;99.90;;;;;;4991418;28;20827;-68
2021/07/04 04:37:50;;;;;;;8.43;7.60;;;19.20;99.90;;;;;;4974159;28;20416;-68
2021/07/04 04:40:18;;;;;;;8.73;7.83;;;19.20;99.90;;;;;;4991410;28;20977;-68
2021/07/04 04:42:46;;;;;;;8.63;7.03;;;19.10;99.90;;;;;;4991871;28;20748;-68
2021/07/04 04:45:15;;;;;;;8.97;7.97;;;19.10;99.90;;;;;;4991740;28;21120;-68
2021/07/04 04:47:44;;;;;;;9.30;8.40;;;19.00;99.90;;;;;;4991481;28;20405;-68
2021/07/04 04:50:13;;;;;;;9.90;8.77;;;18.90;99.90;;;;;;4991589;28;20739;-68
2021/07/04 04:52:41;;;;;;;10.20;8.60;;;18.80;99.90;;;;;;4973879;28;20476;-68
2021/07/04 04:55:11;;;;;;;12.10;10.13;;;18.50;99.90;;;;;;4991034;28;20472;-68
2021/07/04 04:57:40;;;;;;;9.07;8.20;;;18.40;99.90;;;;;;4991231;28;20403;-68
2021/07/04 05:00:09;;;;;;;10.00;9.00;;;18.30;99.90;;;;;;4990836;28;20432;-68
2021/07/04 05:02:47;;;;;;;10.23;9.23;;;18.40;99.90;;;;;;4991311;28;20442;-68
2021/07/04 05:05:16;;;;;;;9.63;8.80;;;18.40;99.90;;;;;;4973583;28;20421;-68
2021/07/04 05:07:44;;;;;;;9.13;8.00;;;18.50;99.90;;;;;;4991052;28;20769;-68
2021/07/04 05:10:13;;;;;;;12.20;9.03;;;18.50;99.90;;;;;;4990249;28;20445;-68
2021/07/04 05:12:42;;;;;;;12.87;8.83;;;18.50;99.90;;;;;;4973582;28;20436;-68
2021/07/04 05:15:11;;;;;;;9.03;7.80;;;18.60;99.90;;;;;;4973286;28;20465;-68
2021/07/04 05:17:40;;;;;;;9.27;8.13;;;18.70;99.90;;;;;;4990861;28;20836;-68
2021/07/04 05:20:11;;;;;;;9.57;8.67;;;18.90;99.90;;;;;;4991038;28;20962;-68
2021/07/04 05:22:39;;;;;;;10.90;9.30;;;18.90;99.90;;;;;;4990913;28;20513;-68
2021/07/04 05:25:09;;;;;;;8.70;7.80;;;19.00;99.90;;;;;;4989768;28;20423;-69
2021/07/04 05:27:40;;;;;;;10.57;8.90;;;19.10;99.90;;;;;;4991223;28;20803;-69
2021/07/04 05:30:10;;;;;;;10.37;9.20;;;19.30;99.90;;;;;;4991420;28;20484;-68
2021/07/04 05:32:38;;;;;;;10.60;9.00;;;19.50;99.90;;;;;;4991290;28;20431;-69
2021/07/04 05:35:08;;;;;;;12.93;10.10;;;19.70;99.90;;;;;;4991145;28;20958;-67
2021/07/04 05:37:38;;;;;;;12.00;8.30;;;19.90;99.90;;;;;;4990308;28;20904;-67
2021/07/04 05:40:12;;;;;;;11.40;9.20;;;20.00;99.90;;;;;;4989419;28;20444;-67
2021/07/04 05:42:41;;;;;;;9.90;9.00;;;20.10;99.90;;;;;;4990606;28;20880;-67
2021/07/04 05:45:12;;;;;;;11.27;9.37;;;20.10;99.90;;;;;;4990804;28;20640;-67
2021/07/04 05:47:41;;;;;;;9.87;7.90;;;20.10;99.90;;;;;;4990154;28;20834;-68
2021/07/04 05:50:11;;;;;;;11.30;8.70;;;20.10;99.90;;;;;;4990331;28;20389;-68
2021/07/04 05:52:40;;;;;;;9.93;8.67;;;20.10;99.90;;;;;;4990234;28;20926;-68
2021/07/04 05:55:10;;;;;;;11.30;9.57;;;20.00;99.90;;;;;;4990753;28;20973;-68
2021/07/04 05:57:39;;;;;;;8.77;7.90;;;19.90;99.90;;;;;;4990413;28;20389;-68
2021/07/04 06:00:09;;;;;;;13.67;10.13;;;20.20;99.90;;;;;;4990565;28;20796;-68
2021/07/04 06:02:41;;;;;;;9.20;8.30;;;20.50;99.90;;;;;;4990050;28;20461;-68
2021/07/04 06:05:13;;;;;;;12.30;8.87;;;20.70;99.90;;;;;;4990561;28;20385;-67
2021/07/04 06:07:42;;;;;;;11.87;10.50;;;20.80;99.90;;;;;;4990167;28;20476;-68
2021/07/04 06:10:11;;;;;;;10.70;9.70;;;21.00;99.90;;;;;;4990492;28;20419;-68
2021/07/04 06:12:40;;;;;;;10.80;9.97;;;21.30;99.90;;;;;;4990349;28;20907;-68
2021/07/04 06:15:10;;;;;;;10.00;9.00;;;21.50;99.90;;;;;;4990338;28;20739;-68
2021/07/04 06:17:38;;;;;;;15.80;9.00;;;21.70;99.90;;;;;;4989906;28;20411;-68
2021/07/04 06:20:09;;;;;;;10.60;9.60;;;22.00;99.90;;;;;;4990272;28;20470;-68
2021/07/04 06:22:38;;;;;;;10.07;9.20;;;22.20;99.90;;;;;;4993541;28;20421;-68
2021/07/04 06:25:12;;;;;;;11.53;8.70;;;22.40;99.90;;;;;;4994954;28;20395;-68
2021/07/04 06:27:41;;;;;;;15.07;8.70;;;22.70;99.90;;;;;;4976648;28;20396;-68
2021/07/04 06:30:10;;;;;;;8.40;7.60;;;22.90;99.90;;;;;;4994733;28;20430;-68
2021/07/04 06:32:40;;;;;;;9.33;8.47;;;23.10;99.90;;;;;;4994712;28;20447;-67
2021/07/04 06:35:11;;;;;;;9.20;8.30;;;23.20;99.90;;;;;;4995157;28;20449;-68
2021/07/04 06:37:39;;;;;;;8.90;7.20;;;23.40;99.90;;;;;;4995080;28;20805;-68
2021/07/04 06:40:10;;;;;;;9.70;8.90;;;23.50;99.90;;;;;;4994883;28;20793;-68
2021/07/04 06:42:38;;;;;;;8.37;7.67;;;23.50;99.90;;;;;;4994978;28;20430;-68
2021/07/04 06:45:10;;;;;;;7.60;6.80;;;23.60;99.90;;;;;;4994787;28;20411;-68
2021/07/04 06:47:38;;;;;;;11.10;7.27;;;23.70;99.90;;;;;;4994914;28;20480;-68
2021/07/04 06:50:08;;;;;;;8.73;6.70;;;23.90;99.90;;;;;;4994822;28;20410;-68
2021/07/04 06:52:37;;;;;;;7.27;6.57;;;24.10;99.90;;;;;;4994446;28;20410;-68
2021/07/04 06:55:07;;;;;;;7.03;6.43;;;24.30;99.90;;;;;;4995591;28;20434;-68
2021/07/04 06:57:37;;;;;;;8.20;7.40;;;24.50;99.90;;;;;;4995592;28;20422;-68
2021/07/04 07:00:08;;;;;;;6.80;6.10;;;24.40;99.90;;;;;;4994613;28;20461;-69
2021/07/04 07:02:36;;;;;;;5.80;5.30;;;24.30;99.90;;;;;;4994451;28;20534;-70
2021/07/04 07:05:06;;;;;;;7.07;6.40;;;24.20;99.90;;;;;;4976863;28;20421;-68
2021/07/04 07:07:34;;;;;;;5.20;4.70;;;24.20;99.90;;;;;;4993967;28;20385;-69
2021/07/04 07:10:02;;;;;;;5.50;4.53;;;24.00;99.90;;;;;;4994029;28;20480;-68
2021/07/04 07:12:31;;;;;;;4.63;4.20;;;24.10;99.90;;;;;;4992607;28;20445;-69
2021/07/04 07:15:00;;;;;;;4.30;3.90;;;24.10;99.90;;;;;;4992554;28;20902;-68
2021/07/04 07:17:28;;;;;;;4.90;4.43;;;24.20;99.90;;;;;;4992514;28;20401;-68
2021/07/04 07:20:03;;;;;;;3.30;3.00;;;24.10;99.90;;;;;;4975134;28;20476;-68
2021/07/04 07:22:31;;;;;;;4.23;3.73;;;24.10;99.90;;;;;;4975713;28;20553;-68
2021/07/04 07:24:59;;;;;;;5.40;3.30;;;24.20;99.90;;;;;;4993329;28;20444;-68
2021/07/04 07:27:29;;;;;;;2.87;2.57;;;24.20;99.90;;;;;;4976040;28;20845;-69
2021/07/04 07:30:06;;;;;;;5.90;2.73;;;24.40;99.90;;;;;;4975514;28;20531;-69
2021/07/04 07:32:35;;;;;;;3.73;3.27;;;24.50;99.90;;;;;;4992469;28;20533;-68
2021/07/04 07:35:04;;;;;;;4.90;3.20;;;24.80;99.90;;;;;;4991628;28;20427;-69
2021/07/04 07:37:32;;;;;;;7.30;3.93;;;24.90;99.90;;;;;;4988700;28;20412;-68
2021/07/04 07:40:01;;;;;;;4.73;3.23;;;24.80;99.90;;;;;;4992697;28;20938;-68
2021/07/04 07:42:30;;;;;;;4.20;3.80;;;24.70;99.90;;;;;;4973347;28;20524;-68
2021/07/04 07:44:58;;;;;;;5.63;3.63;;;24.50;99.90;;;;;;4993676;28;20820;-68
2021/07/04 07:47:27;;;;;;;4.30;3.90;;;24.30;99.90;;;;;;4975989;28;20776;-68
2021/07/04 07:49:56;;;;;;;4.67;4.27;;;24.30;99.90;;;;;;4976012;28;20434;-68
2021/07/04 07:52:24;;;;;;;7.40;6.13;;;24.20;99.90;;;;;;4991738;28;20529;-68
2021/07/04 07:54:52;;;;;;;4.40;4.00;;;24.20;99.90;;;;;;4993421;28;20919;-69
2021/07/04 07:57:20;;;;;;;4.57;4.17;;;24.40;99.90;;;;;;4993271;28;20440;-67
2021/07/04 07:59:50;;;;;;;5.57;4.27;;;24.50;99.90;;;;;;4992096;28;20415;-67
2021/07/04 08:02:18;;;;;;;5.90;3.73;;;24.80;99.90;;;;;;4993855;28;20532;-68
2021/07/04 08:04:47;;;;;;;5.33;4.83;;;24.70;99.90;;;;;;4994719;28;20805;-68
2021/07/04 08:07:15;;;;;;;7.13;4.10;;;24.60;99.90;;;;;;4993928;28;20436;-68
2021/07/04 08:09:44;;;;;;;4.70;4.30;;;24.40;99.90;;;;;;4994018;28;20421;-68
2021/07/04 08:12:12;;;;;;;5.43;4.40;;;24.40;99.90;;;;;;4993232;28;20449;-68
2021/07/04 08:14:50;;;;;;;5.33;4.43;;;24.30;99.90;;;;;;4975551;28;20512;-68
2021/07/04 08:17:18;;;;;;;4.50;3.57;;;24.40;99.90;;;;;;4992747;28;20481;-68
2021/07/04 08:19:48;;;;;;;3.90;3.40;;;24.50;99.90;;;;;;4992705;28;20522;-69
2021/07/04 08:22:16;;;;;;;4.23;3.83;;;24.30;99.90;;;;;;4992639;28;20794;-68
2021/07/04 08:24:44;;;;;;;4.33;3.93;;;24.40;99.90;;;;;;4992728;28;20811;-68
2021/07/04 08:27:12;;;;;;;4.50;3.80;;;24.50;99.90;;;;;;4992511;28;20437;-68
2021/07/04 08:29:40;;;;;;;4.60;4.30;;;24.70;99.90;;;;;;4992597;28;20426;-68
2021/07/04 08:32:10;;;;;;;4.20;3.80;;;24.70;99.90;;;;;;4990882;28;20458;-69
2021/07/04 08:34:38;;;;;;;5.30;4.70;;;24.60;99.90;;;;;;4992692;28;20434;-68
2021/07/04 08:37:07;;;;;;;7.23;4.80;;;24.50;99.90;;;;;;4992230;28;20422;-69
2021/07/04 08:39:35;;;;;;;5.00;4.60;;;24.50;99.90;;;;;;4992313;28;20489;-69
2021/07/04 08:42:04;;;;;;;4.67;4.27;;;24.40;99.90;;;;;;4992286;28;21058;-69
2021/07/04 08:44:32;;;;;;;5.63;4.47;;;24.20;99.90;;;;;;4991795;28;20729;-68
2021/07/04 08:47:00;;;;;;;4.40;4.10;;;24.10;99.90;;;;;;4992110;28;20401;-68
2021/07/04 08:49:29;;;;;;;4.33;3.97;;;24.30;99.90;;;;;;4992123;28;20897;-67
2021/07/04 08:51:57;;;;;;;4.20;3.90;;;24.70;99.90;;;;;;4992432;28;20424;-69
2021/07/04 08:54:26;;;;;;;4.40;4.03;;;25.10;99.90;;;;;;4992237;28;20430;-69
2021/07/04 08:56:55;;;;;;;4.80;4.37;;;25.30;99.90;;;;;;4991759;28;20444;-69
2021/07/04 08:59:23;;;;;;;5.03;4.17;;;25.50;99.90;;;;;;4991802;28;20437;-69
2021/07/04 09:01:52;;;;;;;5.20;4.70;;;25.40;99.90;;;;;;4991585;28;20440;-70
2021/07/04 09:04:25;;;;;;;4.37;3.80;;;25.40;99.90;;;;;;4991966;28;20457;-68
2021/07/04 09:06:55;;;;;;;4.00;3.70;;;25.80;99.90;;;;;;4991768;28;20437;-68
2021/07/04 09:09:26;;;;;;;5.90;4.50;;;26.20;99.90;;;;;;4991844;28;20433;-69
2021/07/04 09:12:05;;;;;;;5.00;4.50;;;26.00;99.90;;;;;;4991920;28;20445;-68
2021/07/04 09:14:36;;;;;;;3.97;3.63;;;25.60;99.90;;;;;;4992360;28;20453;-68
2021/07/04 09:17:34;;;;;;;4.63;4.20;;;25.80;99.90;;;;;;4991678;28;20768;-69
2021/07/04 09:20:06;;;;;;;5.33;4.83;;;25.80;99.90;;;;;;4991599;28;20431;-69
2021/07/04 09:22:37;;;;;;;5.10;4.67;;;26.00;99.90;;;;;;4991750;28;20448;-69
2021/07/04 09:25:10;;;;;;;4.40;3.87;;;26.50;99.90;;;;;;4991255;28;20400;-68
2021/07/04 09:27:39;;;;;;;4.57;4.17;;;26.60;99.90;;;;;;4991696;28;20430;-68
2021/07/04 09:30:13;;;;;;;4.93;4.47;;;26.60;99.90;;;;;;4991299;28;20476;-68
2021/07/04 09:32:48;;;;;;;6.33;3.70;;;27.00;99.90;;;;;;4991776;28;20798;-69
2021/07/04 09:35:20;;;;;;;5.33;4.93;;;27.50;99.90;;;;;;5027425;23;20484;-84
2021/07/04 09:37:51;;;;;;;4.37;3.97;;;27.80;99.90;;;;;;5021998;28;20425;-84
2021/07/04 09:40:23;;;;;;;4.97;4.47;;;28.10;99.90;;;;;;5022990;28;20413;-84
2021/07/04 09:43:05;;;;;;;5.50;5.00;;;28.20;99.90;;;;;;5004492;28;20511;-85
2021/07/04 09:45:46;;;;;;;4.97;4.57;;;28.20;99.90;;;;;;5005850;28;20453;-82
2021/07/04 09:48:16;;;;;;;5.40;4.90;;;27.80;99.90;;;;;;5002964;28;20404;-83
2021/07/04 09:50:46;;;;;;;4.37;3.97;;;26.70;99.90;;;;;;5003020;28;20436;-84
2021/07/04 09:53:15;;;;;;;4.87;3.97;;;26.00;99.90;;;;;;5002084;28;20426;-84
2021/07/04 09:55:45;;;;;;;6.60;4.77;;;26.00;99.90;;;;;;5001969;28;20457;-84
2021/07/04 09:58:14;;;;;;;5.30;4.80;;;26.30;99.90;;;;;;4985097;28;20442;-84
2021/07/04 10:00:46;;;;;;;5.17;4.67;;;26.60;99.90;;;;;;5004746;28;20434;-83
2021/07/04 10:03:18;;;;;;;4.37;3.97;;;27.00;99.90;;;;;;5005119;28;20465;-82
2021/07/04 10:06:04;;;;;;;4.47;3.97;;;27.10;99.90;;;;;;5008858;28;20813;-83
2021/07/04 10:08:34;;;;;;;4.73;4.23;;;26.70;99.90;;;;;;5011971;28;20435;-84
2021/07/04 10:11:05;;;;;;;6.10;4.80;;;26.00;99.90;;;;;;4991719;28;20436;-83
2021/07/04 10:13:36;;;;;;;5.03;4.53;;;25.40;99.90;;;;;;4991467;28;20450;-84
2021/07/04 10:16:06;;;;;;;6.13;5.53;;;25.70;99.90;;;;;;4992909;28;20456;-83
2021/07/04 10:18:36;;;;;;;5.07;4.57;;;26.30;99.90;;;;;;5011273;28;20414;-80
2021/07/04 10:21:05;;;;;;;4.70;4.30;;;26.60;99.90;;;;;;5012255;28;20436;-83
2021/07/04 10:23:34;;;;;;;5.40;4.93;;;26.60;99.90;;;;;;5007500;28;20458;-83
2021/07/04 10:26:04;;;;;;;5.63;5.13;;;26.70;99.90;;;;;;5004598;28;20422;-85
2021/07/04 10:28:35;;;;;;;7.13;4.30;;;27.00;99.90;;;;;;5002099;28;20465;-82
2021/07/04 10:31:10;;;;;;;5.07;4.60;;;27.40;99.90;;;;;;4993756;28;20442;-83
2021/07/04 10:33:38;;;;;;;4.93;4.53;;;26.80;99.90;;;;;;5009458;28;20431;-82
2021/07/04 10:36:12;;;;;;;4.60;4.20;;;26.80;99.90;;;;;;5009707;28;20422;-85
2021/07/04 10:38:47;;;;;;;5.90;5.00;;;26.80;99.90;;;;;;5005584;28;20408;-82
2021/07/04 10:41:20;;;;;;;5.40;4.60;;;27.00;99.90;;;;;;5001749;28;20436;-82
2021/07/04 10:43:53;;;;;;;4.57;4.17;;;27.40;99.90;;;;;;4984374;28;21015;-83
2021/07/04 10:47:04;;;;;;;6.70;4.83;;;26.70;99.90;;;;;;5000901;28;20432;-84
2021/07/04 10:49:40;;;;;;;5.07;4.67;;;26.20;99.90;;;;;;5002279;28;20433;-82
2021/07/04 10:52:12;;;;;;;6.50;4.73;;;26.30;99.90;;;;;;5002070;28;20915;-81
2021/07/04 10:54:55;;;;;;;5.07;4.57;;;26.10;99.90;;;;;;4992145;28;20437;-81
2021/07/04 10:57:31;;;;;;;5.10;4.70;;;26.00;99.90;;;;;;5007779;28;20526;-82
2021/07/04 11:00:24;;;;;;;5.70;5.23;;;25.90;99.90;;;;;;4986468;28;20420;-82
2021/07/04 11:02:56;;;;;;;5.73;5.17;;;26.20;99.90;;;;;;5003203;28;20474;-82
2021/07/04 11:05:55;;;;;;;8.33;5.60;;;25.70;99.90;;;;;;4998767;28;20463;-80
2021/07/04 11:08:26;;;;;;;5.20;4.70;;;26.20;99.90;;;;;;4937747;29;20448;-81
2021/07/04 11:11:00;;;;;;;4.90;4.50;;;26.40;99.90;;;;;;5002614;28;20453;-81
2021/07/04 11:13:48;;;;;;;5.60;5.20;;;26.70;99.90;;;;;;5010558;28;20400;-83
2021/07/04 11:16:23;;;;;;;8.40;5.33;;;26.70;99.90;;;;;;5004728;28;20457;-83
2021/07/04 11:18:55;;;;;;;9.67;7.73;;;27.10;99.90;;;;;;5005624;28;20433;-83
2021/07/04 11:21:45;;;;;;;5.60;4.80;;;27.60;99.90;;;;;;5004790;28;20426;-83
2021/07/04 11:24:18;;;;;;;8.93;7.60;;;27.50;99.90;;;;;;5004088;28;20454;-84
2021/07/04 11:27:27;;;;;;;5.27;4.80;;;27.60;99.90;;;;;;5003590;28;20493;-82
2021/07/04 11:30:26;;;;;;;9.23;6.90;;;27.80;99.90;;;;;;4987964;28;20437;-83
2021/07/04 11:33:25;;;;;;;6.20;5.40;;;28.30;99.90;;;;;;5006096;28;20454;-83
2021/07/04 11:35:55;;;;;;;4.47;4.17;;;28.80;99.90;;;;;;5004260;28;20449;-83
2021/07/04 11:38:26;;;;;;;5.13;4.73;;;29.10;99.90;;;;;;4990485;28;20437;-82
2021/07/04 11:40:55;;;;;;;4.90;4.50;;;29.10;99.90;;;;;;5018658;28;20418;-81
2021/07/04 11:43:25;;;;;;;5.97;5.47;;;29.20;99.90;;;;;;5017953;28;20440;-82
2021/07/04 11:45:56;;;;;;;6.10;5.47;;;28.90;99.90;;;;;;5016485;28;20418;-82
2021/07/04 11:48:47;;;;;;;5.67;5.13;;;28.50;99.90;;;;;;5005703;28;20425;-82
2021/07/04 11:51:23;;;;;;;6.40;5.80;;;28.00;99.90;;;;;;5003488;28;20446;-83
2021/07/04 11:53:54;;;;;;;6.50;5.97;;;27.60;99.90;;;;;;4988247;28;20484;-82
2021/07/04 11:56:22;;;;;;;6.13;5.53;;;27.60;99.90;;;;;;5004790;28;20452;-81
2021/07/04 11:58:51;;;;;;;5.80;5.30;;;27.40;99.90;;;;;;5003682;28;20407;-82
2021/07/04 12:01:23;;;;;;;5.20;4.70;;;27.10;99.90;;;;;;5003031;28;20430;-82
2021/07/04 12:03:54;;;;;;;5.67;5.23;;;26.50;99.90;;;;;;5005868;28;20967;-83
2021/07/04 12:06:23;;;;;;;5.70;5.30;;;26.30;99.90;;;;;;5002349;28;20434;-82
2021/07/04 12:08:59;;;;;;;6.40;5.80;;;25.90;99.90;;;;;;5004442;28;20437;-82
2021/07/04 12:11:46;;;;;;;6.37;5.77;;;25.70;99.90;;;;;;5018416;28;20445;-81
2021/07/04 12:14:29;;;;;;;7.43;5.90;;;26.00;99.90;;;;;;5018559;28;20523;-81
2021/07/04 12:17:14;;;;;;;6.80;5.10;;;26.20;99.90;;;;;;5017689;28;20417;-81
2021/07/04 12:19:44;;;;;;;6.13;5.63;;;26.00;99.90;;;;;;4999672;28;20450;-82
2021/07/04 12:22:13;;;;;;;5.90;5.40;;;26.30;99.90;;;;;;5017838;28;20414;-81
2021/07/04 12:24:44;;;;;;;5.70;5.20;;;26.70;99.90;;;;;;5017525;28;20434;-82
2021/07/04 12:27:12;;;;;;;5.93;5.43;;;26.70;99.90;;;;;;4999921;28;20489;-81
2021/07/04 12:30:00;;;;;;;5.40;4.90;;;26.80;99.90;;;;;;5016569;28;20414;-81
2021/07/04 12:32:31;;;;;;;6.00;5.50;;;26.90;99.90;;;;;;5016305;28;20484;-80
2021/07/04 12:34:59;;;;;;;6.20;5.60;;;27.00;99.90;;;;;;5017355;28;20457;-81
2021/07/04 12:37:28;;;;;;;9.47;8.43;;;27.20;99.90;;;;;;5017540;28;20429;-82
2021/07/04 12:40:08;;;;;;;8.27;5.07;;;27.20;99.90;;;;;;5017847;28;20445;-81
2021/07/04 12:42:36;;;;;;;7.13;6.43;;;27.30;99.90;;;;;;5018132;28;20421;-81
2021/07/04 12:45:07;;;;;;;5.90;5.40;;;27.00;99.90;;;;;;5000491;28;20442;-81
2021/07/04 12:47:37;;;;;;;6.20;5.43;;;27.30;99.90;;;;;;5016308;28;20422;-81
2021/07/04 12:50:11;;;;;;;5.97;5.47;;;27.90;99.90;;;;;;5016126;28;20442;-82
2021/07/04 12:52:52;;;;;;;6.63;6.03;;;28.30;99.90;;;;;;5013918;28;20434;-82
2021/07/04 12:55:38;;;;;;;9.20;5.90;;;28.80;99.90;;;;;;5017414;28;20438;-81
2021/07/04 12:58:35;;;;;;;6.00;5.50;;;29.10;99.90;;;;;;5017502;28;20453;-81
2021/07/04 13:01:20;;;;;;;7.27;6.53;;;28.90;99.90;;;;;;5017663;28;20422;-82
2021/07/04 13:03:54;;;;;;;7.83;6.53;;;28.90;99.90;;;;;;5016190;28;20548;-82
2021/07/04 13:06:48;;;;;;;5.73;5.27;;;28.20;99.90;;;;;;5015999;28;20426;-82
2021/07/04 13:09:23;;;;;;;6.90;6.20;;;27.80;99.90;;;;;;4997746;28;20444;-81
2021/07/04 13:12:04;;;;;;;6.80;6.07;;;27.40;99.90;;;;;;5016682;28;20430;-81